Time;durP1;ratioP1;P1;durP2;ratioP2;P2;SDS_P1;SDS_P2;PMS_P1;PMS_P2;Temp;Humidity;BMP_temperature;BMP_pressure;BME280_temperature;BME280_humidity;BME280_pressure;Samples;Min_cycle;Max_cycle;Signal;HPM_P1;HPM_P2
2021/03/23 00:00:37;;;;;;;10.40;3.30;;;1.10;98.40;;;;;;4205423;28;20405;-63
2021/03/23 00:02:38;;;;;;;8.57;3.23;;;1.00;98.30;;;;;;4204834;28;20253;-63
2021/03/23 00:04:39;;;;;;;5.70;2.83;;;1.00;98.40;;;;;;4205450;28;20285;-64
2021/03/23 00:06:41;;;;;;;6.10;3.60;;;0.90;98.40;;;;;;4205063;28;20267;-65
2021/03/23 00:08:45;;;;;;;5.83;2.90;;;0.90;98.40;;;;;;4205206;28;20769;-64
2021/03/23 00:10:46;;;;;;;7.83;3.20;;;0.90;98.40;;;;;;4205477;28;20262;-63
2021/03/23 00:12:48;;;;;;;7.03;3.20;;;0.80;98.30;;;;;;4205204;28;20329;-68
2021/03/23 00:14:49;;;;;;;10.23;3.40;;;0.80;98.40;;;;;;4205692;28;20814;-64
2021/03/23 00:16:50;;;;;;;8.37;2.93;;;0.80;98.40;;;;;;4204787;28;20269;-64
2021/03/23 00:18:52;;;;;;;7.43;3.27;;;0.70;98.40;;;;;;4207185;28;20758;-64
2021/03/23 00:20:53;;;;;;;6.30;3.10;;;0.70;98.40;;;;;;4207741;28;20302;-64
2021/03/23 00:22:54;;;;;;;3.90;2.50;;;0.70;98.40;;;;;;4208529;28;20330;-65
2021/03/23 00:24:55;;;;;;;9.27;3.13;;;0.70;98.40;;;;;;4207778;28;20281;-66
2021/03/23 00:26:56;;;;;;;7.30;2.90;;;0.60;98.30;;;;;;4208872;28;20314;-65
2021/03/23 00:28:57;;;;;;;7.90;3.20;;;0.70;98.30;;;;;;4207965;28;20257;-65
2021/03/23 00:30:59;;;;;;;5.07;3.30;;;0.60;98.30;;;;;;4209147;28;20272;-65
2021/03/23 00:33:00;;;;;;;7.17;2.97;;;0.70;98.40;;;;;;4207865;28;20280;-64
2021/03/23 00:35:02;;;;;;;6.27;2.93;;;0.60;98.40;;;;;;4208179;28;20334;-64
2021/03/23 00:37:03;;;;;;;5.77;2.97;;;0.60;98.50;;;;;;4207599;28;20330;-64
2021/03/23 00:39:06;;;;;;;9.40;3.50;;;0.60;98.50;;;;;;4208106;28;20342;-64
2021/03/23 00:41:08;;;;;;;5.17;2.47;;;0.50;98.50;;;;;;4207779;28;20345;-64
2021/03/23 00:43:10;;;;;;;5.90;3.33;;;0.50;98.40;;;;;;4207661;28;20276;-68
2021/03/23 00:45:12;;;;;;;6.57;3.37;;;0.50;98.50;;;;;;4208763;28;20660;-64
2021/03/23 00:47:14;;;;;;;6.40;3.00;;;0.50;98.40;;;;;;4207537;28;20257;-64
2021/03/23 00:49:15;;;;;;;8.37;2.87;;;0.50;98.40;;;;;;4208208;28;20273;-64
2021/03/23 00:51:16;;;;;;;6.30;2.70;;;0.50;98.50;;;;;;4207864;28;20822;-64
2021/03/23 00:53:19;;;;;;;6.70;2.80;;;0.50;98.50;;;;;;4208730;28;20272;-64
2021/03/23 00:55:20;;;;;;;11.03;2.67;;;0.50;98.40;;;;;;4207227;28;20261;-64
2021/03/23 00:57:21;;;;;;;5.00;2.30;;;0.50;98.40;;;;;;4208891;28;20292;-65
2021/03/23 00:59:22;;;;;;;6.07;3.23;;;0.50;98.30;;;;;;4207589;28;20346;-64
2021/03/23 01:01:23;;;;;;;6.57;3.17;;;0.50;98.40;;;;;;4208481;28;20819;-64
2021/03/23 01:03:24;;;;;;;6.53;3.23;;;0.50;98.30;;;;;;4207656;28;20265;-65
2021/03/23 01:05:29;;;;;;;6.93;3.27;;;0.40;98.20;;;;;;4207860;28;20280;-63
2021/03/23 01:07:30;;;;;;;8.80;3.00;;;0.40;98.30;;;;;;4207053;28;20280;-63
2021/03/23 01:09:31;;;;;;;6.97;2.67;;;0.40;98.20;;;;;;4208159;28;20740;-63
2021/03/23 01:11:33;;;;;;;6.50;3.27;;;0.40;98.10;;;;;;4207550;28;20266;-64
2021/03/23 01:13:34;;;;;;;7.97;2.87;;;0.40;98.10;;;;;;4207485;28;20276;-65
2021/03/23 01:15:36;;;;;;;8.57;3.27;;;0.40;98.00;;;;;;4207886;28;20268;-62
2021/03/23 01:17:37;;;;;;;10.63;3.37;;;0.40;98.00;;;;;;4207254;28;20652;-64
2021/03/23 01:19:38;;;;;;;8.50;3.23;;;0.40;98.00;;;;;;4208037;28;20345;-64
2021/03/23 01:21:39;;;;;;;6.37;3.73;;;0.40;98.00;;;;;;4206980;28;20330;-67
2021/03/23 01:23:40;;;;;;;4.83;3.53;;;0.40;98.00;;;;;;4208361;28;20276;-64
2021/03/23 01:25:42;;;;;;;6.93;3.47;;;0.40;97.90;;;;;;4206768;28;20314;-64
2021/03/23 01:27:43;;;;;;;7.53;4.17;;;0.40;97.80;;;;;;4208440;28;20336;-63
2021/03/23 01:29:45;;;;;;;8.63;4.00;;;0.30;97.70;;;;;;4206036;28;20277;-67
2021/03/23 01:31:46;;;;;;;6.77;3.40;;;0.40;97.70;;;;;;4207306;28;20280;-64
2021/03/23 01:33:47;;;;;;;7.30;4.07;;;0.30;97.40;;;;;;4207255;28;20331;-68
2021/03/23 01:35:48;;;;;;;6.43;3.03;;;0.30;97.20;;;;;;4208139;28;20506;-64
2021/03/23 01:37:49;;;;;;;6.63;3.30;;;0.40;97.20;;;;;;4206772;28;20269;-62
2021/03/23 01:39:50;;;;;;;5.50;2.93;;;0.40;97.00;;;;;;4207030;28;20989;-63
2021/03/23 01:41:51;;;;;;;6.03;3.10;;;0.30;96.80;;;;;;4206530;28;20273;-64
2021/03/23 01:43:53;;;;;;;5.30;2.87;;;0.30;96.90;;;;;;4207317;28;20277;-63
2021/03/23 01:45:56;;;;;;;5.03;2.80;;;0.40;97.00;;;;;;4206977;28;20318;-63
2021/03/23 01:48:00;;;;;;;8.77;3.20;;;0.30;96.90;;;;;;4206919;28;20269;-66
2021/03/23 01:50:01;;;;;;;7.50;3.77;;;0.30;96.90;;;;;;4207042;28;20314;-61
2021/03/23 01:52:09;;;;;;;7.47;3.37;;;0.30;96.70;;;;;;4205723;28;20313;-62
2021/03/23 01:54:23;;;;;;;7.37;3.30;;;0.30;96.40;;;;;;4207673;28;20310;-63
2021/03/23 01:56:24;;;;;;;9.90;3.40;;;0.30;96.40;;;;;;4206110;28;20261;-64
2021/03/23 01:58:26;;;;;;;5.73;2.27;;;0.20;96.40;;;;;;4207417;28;21108;-62
2021/03/23 02:00:27;;;;;;;5.53;2.70;;;0.20;96.40;;;;;;4206454;28;20269;-63
2021/03/23 02:02:30;;;;;;;5.43;2.90;;;0.20;96.40;;;;;;4207306;28;20269;-62
2021/03/23 02:04:31;;;;;;;6.83;2.20;;;0.20;96.50;;;;;;4206022;28;20280;-63
2021/03/23 02:06:50;;;;;;;6.53;2.37;;;0.20;96.50;;;;;;4206952;28;20312;-63
2021/03/23 02:08:53;;;;;;;6.17;2.87;;;0.20;96.60;;;;;;4206412;28;20270;-62
2021/03/23 02:11:01;;;;;;;6.30;3.17;;;0.10;96.70;;;;;;4207532;28;20625;-63
2021/03/23 02:13:07;;;;;;;12.47;4.47;;;0.20;96.90;;;;;;4206002;28;20836;-65
2021/03/23 02:15:09;;;;;;;8.00;4.23;;;0.10;96.90;;;;;;4207183;28;20282;-63
2021/03/23 02:17:24;;;;;;;11.07;4.50;;;0.10;96.90;;;;;;4206012;28;20298;-62
2021/03/23 02:19:25;;;;;;;6.30;3.53;;;0.10;96.90;;;;;;4207157;28;20289;-63
2021/03/23 02:21:26;;;;;;;6.87;3.80;;;0.00;96.80;;;;;;4205640;28;20318;-64
2021/03/23 02:23:34;;;;;;;7.20;3.53;;;0.00;96.70;;;;;;4207252;28;20314;-63
2021/03/23 02:25:36;;;;;;;6.27;2.57;;;0.00;96.80;;;;;;4204388;28;20793;-65
2021/03/23 02:27:38;;;;;;;4.90;3.17;;;-0.10;96.80;;;;;;4206945;28;20647;-63
2021/03/23 02:29:39;;;;;;;6.57;3.27;;;-0.10;96.80;;;;;;4206315;28;21670;-64
2021/03/23 02:31:48;;;;;;;6.87;2.73;;;-0.20;97.00;;;;;;4206851;28;20350;-68
2021/03/23 02:33:49;;;;;;;9.13;2.97;;;-0.20;96.90;;;;;;4206098;28;20400;-63
2021/03/23 02:35:51;;;;;;;7.50;2.83;;;-0.20;96.90;;;;;;4206528;28;20273;-63
2021/03/23 02:37:52;;;;;;;8.43;2.97;;;-0.30;96.80;;;;;;4206581;28;20265;-66
2021/03/23 02:39:53;;;;;;;5.17;2.30;;;-0.30;96.80;;;;;;4205988;28;20289;-65
2021/03/23 02:41:56;;;;;;;6.20;2.63;;;-0.40;96.80;;;;;;4206120;28;21153;-65
2021/03/23 02:43:57;;;;;;;6.00;2.17;;;-0.40;96.80;;;;;;4205500;28;20280;-65
2021/03/23 02:45:58;;;;;;;6.30;2.60;;;-0.50;96.70;;;;;;4205470;28;20308;-63
2021/03/23 02:48:00;;;;;;;6.27;2.47;;;-0.50;96.60;;;;;;4205468;28;20281;-66
2021/03/23 02:50:01;;;;;;;5.70;2.60;;;-0.60;96.50;;;;;;4207265;28;20265;-64
2021/03/23 02:52:03;;;;;;;3.60;1.90;;;-0.60;96.40;;;;;;4205659;28;20393;-65
2021/03/23 02:54:05;;;;;;;6.87;2.30;;;-0.60;96.40;;;;;;4207264;28;20260;-63
2021/03/23 02:56:06;;;;;;;6.63;3.13;;;-0.70;96.50;;;;;;4205392;28;20324;-66
2021/03/23 02:58:07;;;;;;;5.30;2.30;;;-0.70;96.60;;;;;;4206509;28;20260;-65
2021/03/23 03:00:12;;;;;;;7.00;1.93;;;-0.70;96.50;;;;;;4205563;28;20659;-63
2021/03/23 03:02:13;;;;;;;10.23;3.23;;;-0.70;96.50;;;;;;4206380;28;20272;-65
2021/03/23 03:04:14;;;;;;;8.53;2.40;;;-0.70;96.50;;;;;;4204766;28;20348;-63
2021/03/23 03:06:16;;;;;;;6.53;2.47;;;-0.80;96.50;;;;;;4205862;28;20269;-62
2021/03/23 03:08:17;;;;;;;6.80;3.43;;;-0.80;96.50;;;;;;4205893;28;20314;-63
2021/03/23 03:10:18;;;;;;;6.90;3.43;;;-0.80;96.50;;;;;;4205409;28;20257;-63
2021/03/23 03:12:19;;;;;;;13.83;3.70;;;-0.80;96.70;;;;;;4206413;28;20257;-63
2021/03/23 03:14:20;;;;;;;7.70;3.30;;;-0.90;96.80;;;;;;4204931;28;20765;-63
2021/03/23 03:16:21;;;;;;;9.47;3.57;;;-0.90;96.70;;;;;;4206081;28;20298;-63
2021/03/23 03:18:24;;;;;;;9.87;3.77;;;-1.00;96.70;;;;;;4205162;28;20314;-66
2021/03/23 03:20:26;;;;;;;10.17;4.23;;;-1.00;96.80;;;;;;4206287;28;20293;-63
2021/03/23 03:22:27;;;;;;;9.97;4.40;;;-1.00;96.90;;;;;;4204942;28;20288;-63
2021/03/23 03:24:28;;;;;;;9.63;4.83;;;-1.10;96.90;;;;;;4206714;28;20725;-64
2021/03/23 03:26:29;;;;;;;9.57;4.50;;;-1.20;97.00;;;;;;4204761;28;20817;-66
2021/03/23 03:28:30;;;;;;;8.83;5.20;;;-1.20;97.10;;;;;;4206512;28;20272;-64
2021/03/23 03:30:33;;;;;;;8.17;5.43;;;-1.30;97.10;;;;;;4205280;28;20265;-63
2021/03/23 03:32:35;;;;;;;11.27;5.80;;;-1.30;97.00;;;;;;4206121;28;20257;-64
2021/03/23 03:34:36;;;;;;;9.37;4.80;;;-1.30;97.10;;;;;;4204641;28;20277;-62
2021/03/23 03:36:37;;;;;;;7.67;3.70;;;-1.40;97.00;;;;;;4206166;28;20269;-62
2021/03/23 03:38:38;;;;;;;10.57;4.87;;;-1.40;97.20;;;;;;4206164;28;20269;-66
2021/03/23 03:40:44;;;;;;;11.87;5.30;;;-1.50;97.20;;;;;;4221880;28;20321;-64
2021/03/23 03:42:45;;;;;;;15.50;6.10;;;-1.50;97.30;;;;;;4222510;28;20264;-63
2021/03/23 03:44:46;;;;;;;9.40;4.93;;;-1.50;97.40;;;;;;4221631;28;20685;-63
2021/03/23 03:46:47;;;;;;;10.20;3.73;;;-1.60;97.40;;;;;;4223039;28;20329;-63
2021/03/23 03:48:48;;;;;;;9.60;4.40;;;-1.60;97.40;;;;;;4222028;28;20744;-64
2021/03/23 03:50:50;;;;;;;10.13;4.00;;;-1.70;97.40;;;;;;4215349;28;20269;-64
2021/03/23 03:52:52;;;;;;;6.60;3.27;;;-1.70;97.40;;;;;;4204934;28;20277;-63
2021/03/23 03:54:53;;;;;;;7.77;3.43;;;-1.70;97.50;;;;;;4209532;28;20322;-62
2021/03/23 03:56:54;;;;;;;10.07;3.67;;;-1.80;97.70;;;;;;4207777;28;20322;-63
2021/03/23 03:58:56;;;;;;;6.33;2.87;;;-1.80;98.00;;;;;;4210050;28;20342;-62
2021/03/23 04:00:57;;;;;;;9.80;3.00;;;-1.90;98.10;;;;;;4208294;28;20736;-62
2021/03/23 04:03:00;;;;;;;11.10;4.07;;;-1.90;98.20;;;;;;4209348;28;20777;-62
2021/03/23 04:05:03;;;;;;;8.47;3.73;;;-1.90;98.30;;;;;;4207941;28;20276;-66
2021/03/23 04:07:04;;;;;;;6.43;2.97;;;-1.90;98.30;;;;;;4209439;28;21261;-64
2021/03/23 04:09:06;;;;;;;7.07;3.57;;;-1.90;98.30;;;;;;4208166;28;20264;-63
2021/03/23 04:11:08;;;;;;;6.28;3.33;;;-1.90;98.30;;;;;;4208648;28;20245;-63
2021/03/23 04:13:10;;;;;;;5.77;3.00;;;-1.90;98.30;;;;;;4208302;28;20028;-63
2021/03/23 04:15:15;;;;;;;9.80;4.03;;;-2.00;98.30;;;;;;4208457;28;20314;-63
2021/03/23 04:17:16;;;;;;;8.17;3.73;;;-1.90;98.30;;;;;;4208825;28;20098;-63
2021/03/23 04:19:17;;;;;;;10.07;2.97;;;-2.00;98.20;;;;;;4208279;28;20296;-63
2021/03/23 04:21:18;;;;;;;9.35;3.80;;;-2.00;98.30;;;;;;4209118;28;20044;-64
2021/03/23 04:23:28;;;;;;;12.07;4.37;;;-2.00;98.50;;;;;;4208289;28;20036;-63
2021/03/23 04:25:31;;;;;;;10.43;4.30;;;-2.00;98.90;;;;;;4208434;28;20330;-63
2021/03/23 04:27:32;;;;;;;10.45;3.72;;;-2.00;98.70;;;;;;4207849;28;20317;-64
2021/03/23 04:29:33;;;;;;;11.80;4.40;;;-2.00;98.70;;;;;;4208725;28;20032;-68
2021/03/23 04:31:39;;;;;;;11.30;4.47;;;-2.00;98.70;;;;;;4206980;28;20070;-64
2021/03/23 04:33:42;;;;;;;16.80;4.90;;;-1.90;98.70;;;;;;4209057;28;20307;-63
2021/03/23 04:35:48;;;;;;;13.53;4.53;;;-1.90;98.70;;;;;;4207644;28;20322;-64
2021/03/23 04:37:49;;;;;;;14.97;4.63;;;-1.80;98.80;;;;;;4208615;28;20409;-64
2021/03/23 04:39:50;;;;;;;12.10;4.00;;;-1.80;98.90;;;;;;4207540;28;20702;-63
2021/03/23 04:41:51;;;;;;;13.55;4.00;;;-1.70;98.80;;;;;;4208141;28;20280;-63
2021/03/23 04:43:53;;;;;;;12.10;3.63;;;-1.40;98.60;;;;;;4207305;28;20081;-64
2021/03/23 04:45:55;;;;;;;11.90;3.60;;;-1.00;98.20;;;;;;4208653;28;20972;-64
2021/03/23 04:47:56;;;;;;;13.10;3.30;;;-0.70;97.60;;;;;;4207231;28;20732;-65
2021/03/23 04:49:58;;;;;;;10.27;3.93;;;-0.20;97.20;;;;;;4208403;28;20261;-63
2021/03/23 04:52:00;;;;;;;10.40;4.00;;;0.20;96.20;;;;;;4207911;28;20256;-63
2021/03/23 04:54:06;;;;;;;11.70;3.43;;;0.60;95.60;;;;;;4207990;28;20318;-63
2021/03/23 04:56:18;;;;;;;12.97;3.80;;;1.10;94.70;;;;;;4207179;28;20330;-63
2021/03/23 04:58:20;;;;;;;7.80;3.60;;;1.40;93.70;;;;;;4207378;28;20318;-63
2021/03/23 05:00:22;;;;;;;15.77;4.00;;;1.80;92.60;;;;;;4207589;28;20305;-66
2021/03/23 05:02:23;;;;;;;12.77;3.33;;;2.10;92.10;;;;;;4207698;28;20342;-65
2021/03/23 05:04:24;;;;;;;13.43;3.10;;;2.30;90.70;;;;;;4207353;28;20760;-65
2021/03/23 05:06:26;;;;;;;10.53;3.17;;;2.70;90.50;;;;;;4205406;28;20346;-62
2021/03/23 05:08:27;;;;;;;8.70;3.33;;;3.10;87.20;;;;;;4208055;28;20658;-63
2021/03/23 05:10:28;;;;;;;7.77;2.40;;;3.40;84.90;;;;;;4206536;28;20333;-67
2021/03/23 05:12:29;;;;;;;7.23;2.50;;;3.80;81.90;;;;;;4207931;28;20268;-63
2021/03/23 05:14:30;;;;;;;9.87;3.07;;;4.00;79.70;;;;;;4205954;28;20273;-61
2021/03/23 05:16:31;;;;;;;6.27;2.37;;;4.30;78.90;;;;;;4207186;28;20288;-63
2021/03/23 05:18:33;;;;;;;12.43;2.97;;;4.40;76.30;;;;;;4206560;28;20269;-64
2021/03/23 05:20:34;;;;;;;7.57;2.93;;;4.60;76.70;;;;;;4207460;28;20346;-64
2021/03/23 05:22:35;;;;;;;8.00;3.00;;;4.80;73.70;;;;;;4206433;28;20317;-63
2021/03/23 05:24:36;;;;;;;7.50;2.63;;;5.20;72.40;;;;;;4207895;28;20268;-64
2021/03/23 05:26:37;;;;;;;6.83;2.70;;;5.60;72.00;;;;;;4206914;28;20290;-64
2021/03/23 05:28:39;;;;;;;7.70;2.50;;;6.10;71.40;;;;;;4206526;28;20808;-64
2021/03/23 05:30:40;;;;;;;6.47;2.37;;;6.60;69.70;;;;;;4207643;28;20253;-65
2021/03/23 05:32:42;;;;;;;8.07;3.00;;;6.80;68.40;;;;;;4206081;28;20261;-64
2021/03/23 05:34:43;;;;;;;7.37;2.77;;;7.00;67.30;;;;;;4207392;28;21183;-64
2021/03/23 05:36:44;;;;;;;10.07;3.00;;;7.30;66.70;;;;;;4206479;28;20085;-63
2021/03/23 05:38:46;;;;;;;6.50;2.50;;;7.60;65.30;;;;;;4207561;28;20032;-66
2021/03/23 05:40:52;;;;;;;6.43;2.83;;;8.00;64.80;;;;;;4205518;28;20500;-65
2021/03/23 05:43:15;;;;;;;13.57;2.57;;;8.30;63.30;;;;;;4207161;28;20101;-65
2021/03/23 05:45:28;;;;;;;10.60;4.43;;;8.50;59.30;;;;;;4206347;28;20032;-67
2021/03/23 05:47:40;;;;;;;18.70;8.33;;;8.70;58.20;;;;;;4207085;28;20040;-66
2021/03/23 05:49:58;;;;;;;47.60;21.77;;;8.70;60.40;;;;;;4204331;28;20035;-68
2021/03/23 05:52:05;;;;;;;44.43;24.03;;;8.30;58.80;;;;;;4205340;28;20081;-65
2021/03/23 05:54:19;;;;;;;37.57;23.17;;;8.50;61.40;;;;;;4203336;28;20082;-65
2021/03/23 05:56:21;;;;;;;38.20;24.13;;;8.80;59.30;;;;;;4193925;28;20647;-66
2021/03/23 05:58:31;;;;;;;16.87;11.00;;;8.70;58.40;;;;;;4206409;28;20036;-66
2021/03/23 06:00:37;;;;;;;11.37;6.27;;;8.60;59.30;;;;;;4203288;28;20940;-66
2021/03/23 06:02:47;;;;;;;9.97;4.23;;;8.40;56.90;;;;;;4201607;28;20101;-65
2021/03/23 06:05:16;;;;;;;5.15;2.90;;;7.60;57.40;;;;;;4205045;28;20564;-66
2021/03/23 06:07:17;;;;;;;4.80;2.90;;;7.30;56.30;;;;;;4189906;28;20109;-63
2021/03/23 06:09:36;;;;;;;6.53;3.20;;;7.80;57.40;;;;;;4206133;28;20028;-66
2021/03/23 06:11:43;;;;;;;10.90;3.53;;;8.50;56.10;;;;;;4189420;28;20036;-62
2021/03/23 06:13:55;;;;;;;8.43;3.77;;;9.20;55.10;;;;;;4190609;28;20098;-62
2021/03/23 06:16:14;;;;;;;12.30;3.53;;;9.50;54.20;;;;;;4201169;28;20020;-63
2021/03/23 06:18:37;;;;;;;14.57;4.23;;;9.90;54.00;;;;;;4207251;28;20557;-62
2021/03/23 06:20:50;;;;;;;5.87;3.10;;;10.40;53.30;;;;;;4204430;28;20048;-64
2021/03/23 06:23:00;;;;;;;9.90;3.53;;;10.80;51.80;;;;;;4205519;28;20028;-64
2021/03/23 06:25:20;;;;;;;8.43;3.80;;;11.10;50.40;;;;;;4205864;28;20081;-64
2021/03/23 06:27:30;;;;;;;14.93;3.60;;;11.30;50.20;;;;;;4205684;28;20298;-62
2021/03/23 06:30:09;;;;;;;16.27;3.40;;;11.70;50.10;;;;;;4205717;28;20330;-63
2021/03/23 06:32:36;;;;;;;9.83;4.20;;;11.90;47.80;;;;;;4205532;28;20035;-66
2021/03/23 06:34:38;;;;;;;9.30;3.67;;;11.70;46.70;;;;;;4206765;28;20070;-65
2021/03/23 06:36:39;;;;;;;9.60;4.20;;;11.20;48.50;;;;;;4206097;28;20040;-63
2021/03/23 06:38:41;;;;;;;12.00;3.13;;;11.10;48.60;;;;;;4206603;28;20934;-64
2021/03/23 06:41:16;;;;;;;10.93;4.03;;;10.70;48.60;;;;;;4220880;28;20039;-64
2021/03/23 06:43:29;;;;;;;10.20;3.67;;;9.70;46.90;;;;;;4219311;28;20057;-63
2021/03/23 06:45:32;;;;;;;10.37;3.93;;;9.20;49.40;;;;;;4207291;28;20109;-64
2021/03/23 06:47:37;;;;;;;9.73;3.83;;;9.40;50.10;;;;;;4205517;28;20890;-63
2021/03/23 06:49:38;;;;;;;6.07;3.47;;;8.90;50.00;;;;;;4200090;28;20028;-64
2021/03/23 06:52:16;;;;;;;10.20;4.00;;;8.40;50.50;;;;;;4201549;28;20036;-64
2021/03/23 06:54:27;;;;;;;10.13;3.23;;;8.20;50.30;;;;;;4202481;28;20580;-64
2021/03/23 06:56:28;;;;;;;;;;;8.10;50.60;;;;;;4206002;28;20070;-62
2021/03/23 06:58:33;;;;;;;15.97;3.70;;;7.60;48.80;;;;;;4205323;28;19911;-62
2021/03/23 07:00:35;;;;;;;7.23;3.30;;;7.40;51.60;;;;;;4205441;28;20172;-63
2021/03/23 07:02:47;;;;;;;9.23;3.33;;;7.50;51.60;;;;;;4204686;28;20487;-61
2021/03/23 07:04:48;;;;;;;6.63;3.17;;;7.90;51.60;;;;;;4205758;28;20056;-62
2021/03/23 07:07:11;;;;;;;5.27;3.00;;;8.30;50.70;;;;;;4205456;28;20032;-62
2021/03/23 07:09:20;;;;;;;5.73;3.10;;;7.90;49.20;;;;;;4206305;28;20168;-63
2021/03/23 07:11:21;;;;;;;10.23;2.47;;;7.70;51.00;;;;;;4205006;28;20509;-63
2021/03/23 07:13:28;;;;;;;4.17;2.63;;;7.60;51.30;;;;;;4205353;28;20044;-63
2021/03/23 07:15:32;;;;;;;6.17;2.50;;;8.00;51.00;;;;;;4204713;28;20036;-65
2021/03/23 07:17:33;;;;;;;4.67;2.60;;;8.00;51.30;;;;;;4194152;28;20032;-63
2021/03/23 07:19:48;;;;;;;5.90;2.40;;;7.70;50.30;;;;;;4205427;28;20113;-62
2021/03/23 07:22:00;;;;;;;6.57;2.50;;;7.90;50.60;;;;;;4204959;28;20376;-63
2021/03/23 07:24:19;;;;;;;7.27;2.47;;;8.00;51.10;;;;;;4204731;28;20485;-62
2021/03/23 07:26:28;;;;;;;6.03;2.70;;;8.60;50.70;;;;;;4206532;28;20468;-63
2021/03/23 07:28:34;;;;;;;3.27;1.63;;;8.70;49.70;;;;;;4204180;28;20020;-63
2021/03/23 07:30:38;;;;;;;8.63;1.83;;;8.30;50.30;;;;;;4205172;28;20024;-63
2021/03/23 07:32:48;;;;;;;11.17;3.33;;;7.80;50.70;;;;;;4203916;28;20020;-62
2021/03/23 07:35:30;;;;;;;8.80;2.47;;;7.70;51.10;;;;;;4204852;28;20043;-66
2021/03/23 07:37:31;;;;;;;11.33;2.33;;;7.60;50.50;;;;;;4204670;28;20322;-63
2021/03/23 07:39:53;;;;;;;7.00;2.30;;;6.60;51.70;;;;;;4204951;28;20526;-63
2021/03/23 07:42:17;;;;;;;4.50;1.80;;;6.70;52.60;;;;;;4188593;28;20045;-62
2021/03/23 07:44:24;;;;;;;8.37;3.20;;;7.20;52.30;;;;;;4201093;28;20116;-62
2021/03/23 07:46:54;;;;;;;4.03;1.60;;;7.30;51.80;;;;;;4204217;28;20044;-62
2021/03/23 07:49:04;;;;;;;4.40;1.70;;;7.20;50.50;;;;;;4204491;28;20090;-62
2021/03/23 07:51:36;;;;;;;5.13;1.70;;;7.30;50.90;;;;;;4205105;28;20028;-63
2021/03/23 07:53:40;;;;;;;7.93;2.83;;;7.30;49.60;;;;;;4204522;28;20072;-66
2021/03/23 07:55:42;;;;;;;7.83;3.17;;;7.40;51.10;;;;;;4211193;28;20092;-63
2021/03/23 07:58:06;;;;;;;8.93;2.13;;;7.60;51.10;;;;;;4208997;28;20051;-63
2021/03/23 08:00:31;;;;;;;3.87;1.70;;;7.50;48.30;;;;;;4201901;28;20064;-64
2021/03/23 08:02:56;;;;;;;7.07;1.77;;;7.20;48.20;;;;;;4203631;28;20423;-63
2021/03/23 08:05:09;;;;;;;5.50;1.70;;;6.60;50.00;;;;;;4205697;28;20064;-62
2021/03/23 08:07:27;;;;;;;3.43;1.00;;;6.80;51.00;;;;;;4205045;28;20821;-62
2021/03/23 08:09:49;;;;;;;4.00;1.80;;;7.00;49.90;;;;;;4206175;28;20269;-66
2021/03/23 08:12:01;;;;;;;5.67;2.10;;;7.40;50.40;;;;;;4204550;28;20290;-62
2021/03/23 08:14:32;;;;;;;4.53;1.47;;;7.80;50.00;;;;;;4205775;28;20257;-62
2021/03/23 08:16:33;;;;;;;3.70;1.53;;;7.80;48.50;;;;;;4204872;28;20696;-62
2021/03/23 08:19:09;;;;;;;6.00;2.00;;;7.70;48.50;;;;;;4206100;28;20825;-62
2021/03/23 08:21:35;;;;;;;2.77;1.10;;;7.40;47.60;;;;;;4203552;28;20300;-62
2021/03/23 08:23:53;;;;;;;1.87;1.13;;;6.60;44.60;;;;;;4194529;28;20035;-62
2021/03/23 08:26:07;;;;;;;2.07;1.00;;;6.40;47.60;;;;;;4204916;28;20290;-62
2021/03/23 08:28:49;;;;;;;2.60;0.87;;;6.40;48.70;;;;;;4204878;28;20272;-62
2021/03/23 08:30:57;;;;;;;2.87;1.10;;;6.70;48.90;;;;;;4205774;28;21267;-62
2021/03/23 08:33:04;;;;;;;2.70;1.20;;;7.10;48.80;;;;;;4204933;28;20355;-62
2021/03/23 08:35:24;;;;;;;6.33;1.87;;;7.20;48.70;;;;;;4205774;28;20334;-62
2021/03/23 08:37:44;;;;;;;1.48;1.13;;;7.30;49.10;;;;;;4204459;28;20256;-65
2021/03/23 08:40:32;;;;;;;4.23;1.20;;;6.70;48.80;;;;;;4206000;28;20032;-63
2021/03/23 08:42:33;;;;;;;3.10;1.60;;;6.10;48.70;;;;;;4185390;28;20785;-63
2021/03/23 08:45:05;;;;;;;3.53;0.73;;;6.20;50.40;;;;;;4214131;28;20309;-63
2021/03/23 08:47:40;;;;;;;1.63;0.90;;;6.50;50.00;;;;;;4196865;28;20284;-63
2021/03/23 08:49:41;;;;;;;4.20;2.00;;;6.70;48.80;;;;;;4206409;28;20028;-64
2021/03/23 08:51:46;;;;;;;6.13;1.67;;;6.90;49.90;;;;;;4207245;28;20370;-65
2021/03/23 08:53:55;;;;;;;3.93;0.97;;;7.20;49.80;;;;;;4208360;28;20277;-64
2021/03/23 08:55:57;;;;;;;2.47;0.90;;;7.20;49.00;;;;;;4206946;28;20756;-62
2021/03/23 08:58:15;;;;;;;2.67;1.50;;;7.10;48.70;;;;;;4208171;28;20268;-64
2021/03/23 09:00:34;;;;;;;5.40;2.37;;;6.90;48.10;;;;;;4207173;28;20288;-65
2021/03/23 09:02:38;;;;;;;4.63;1.30;;;6.90;48.50;;;;;;4206878;28;20307;-62
2021/03/23 09:05:02;;;;;;;3.50;1.40;;;6.90;49.70;;;;;;4207134;28;20292;-63
2021/03/23 09:07:29;;;;;;;4.33;1.30;;;6.90;50.00;;;;;;4207331;28;20326;-63
2021/03/23 09:09:42;;;;;;;6.90;1.40;;;6.70;50.20;;;;;;4208289;28;20257;-62
2021/03/23 09:12:10;;;;;;;1.60;0.87;;;6.60;50.70;;;;;;4207222;28;20334;-63
2021/03/23 09:14:16;;;;;;;3.60;1.30;;;6.40;50.30;;;;;;4187686;28;20370;-62
2021/03/23 09:16:38;;;;;;;4.97;1.60;;;6.20;51.20;;;;;;4206384;28;20265;-62
2021/03/23 09:19:01;;;;;;;4.47;1.33;;;6.30;51.70;;;;;;4206398;28;20273;-63
2021/03/23 09:21:10;;;;;;;4.37;1.10;;;6.50;51.10;;;;;;4207102;28;20373;-61
2021/03/23 09:23:17;;;;;;;11.27;1.90;;;6.70;50.90;;;;;;4208468;28;20284;-64
2021/03/23 09:25:42;;;;;;;3.63;1.40;;;6.70;51.00;;;;;;4207257;28;20341;-62
2021/03/23 09:27:50;;;;;;;1.97;1.10;;;6.80;51.10;;;;;;4210538;28;20271;-64
2021/03/23 09:29:52;;;;;;;3.53;1.20;;;6.90;50.40;;;;;;4223833;28;20332;-62
2021/03/23 09:31:58;;;;;;;2.67;0.80;;;6.80;50.50;;;;;;4225275;28;21081;-62
2021/03/23 09:33:59;;;;;;;2.47;1.10;;;6.80;50.50;;;;;;4223544;28;20768;-63
2021/03/23 09:38:33;;;;;;;3.97;1.93;;;6.80;51.20;;;;;;4213596;28;20333;-64
2021/03/23 09:40:49;;;;;;;3.03;1.03;;;6.80;50.20;;;;;;4224823;28;20376;-63
2021/03/23 09:42:50;;;;;;;2.37;1.40;;;6.60;50.90;;;;;;4222948;28;20297;-62
2021/03/23 09:45:18;;;;;;;5.73;1.20;;;6.70;51.40;;;;;;4222702;28;20275;-62
2021/03/23 09:47:51;;;;;;;6.20;1.50;;;6.80;51.80;;;;;;4222981;28;20276;-63
2021/03/23 09:49:52;;;;;;;8.40;1.80;;;6.80;51.70;;;;;;4224456;28;20671;-63
2021/03/23 09:51:55;;;;;;;5.57;1.50;;;6.80;51.70;;;;;;4222399;28;20279;-64
2021/03/23 09:53:56;;;;;;;7.83;2.10;;;6.70;51.80;;;;;;4224659;28;20294;-63
2021/03/23 09:56:11;;;;;;;7.40;1.47;;;6.70;52.10;;;;;;4214232;28;20425;-62
2021/03/23 09:58:32;;;;;;;3.50;1.20;;;6.60;51.80;;;;;;4205459;28;20276;-61
2021/03/23 10:00:35;;;;;;;1.77;1.33;;;6.60;52.10;;;;;;4206393;28;20304;-62
2021/03/23 10:02:37;;;;;;;3.93;1.37;;;6.70;52.50;;;;;;4207610;28;20269;-61
2021/03/23 10:04:40;;;;;;;4.37;1.40;;;6.70;52.70;;;;;;4206455;28;20319;-62
2021/03/23 10:06:48;;;;;;;4.13;1.80;;;6.70;52.70;;;;;;4205447;28;20334;-62
2021/03/23 10:09:03;;;;;;;3.50;1.53;;;6.60;52.60;;;;;;4204362;28;20261;-63
2021/03/23 10:11:09;;;;;;;3.43;1.43;;;6.70;53.20;;;;;;4207423;28;21298;-61
2021/03/23 10:13:20;;;;;;;11.53;2.20;;;6.70;53.20;;;;;;4205143;28;20326;-63
2021/03/23 10:15:32;;;;;;;6.00;2.90;;;6.70;53.80;;;;;;4207144;28;20582;-64
2021/03/23 10:17:33;;;;;;;2.43;1.60;;;6.70;54.00;;;;;;4205712;28;20790;-64
2021/03/23 10:19:44;;;;;;;5.63;2.23;;;6.80;53.80;;;;;;4207308;28;20280;-63
2021/03/23 10:21:50;;;;;;;5.97;2.00;;;6.80;53.90;;;;;;4207172;28;20346;-62
2021/03/23 10:23:57;;;;;;;6.60;2.80;;;6.70;54.10;;;;;;4207143;28;20081;-64
2021/03/23 10:26:06;;;;;;;6.70;2.70;;;6.70;54.50;;;;;;4203899;28;20276;-63
2021/03/23 10:28:07;;;;;;;8.03;2.10;;;6.70;54.80;;;;;;4212975;28;20283;-63
2021/03/23 10:30:12;;;;;;;4.57;2.07;;;6.60;54.60;;;;;;4222116;28;20256;-62
2021/03/23 10:32:18;;;;;;;5.87;2.33;;;6.50;55.00;;;;;;4223699;28;20089;-62
2021/03/23 10:34:28;;;;;;;9.60;2.20;;;6.50;55.30;;;;;;4210909;28;20326;-63
2021/03/23 10:37:01;;;;;;;4.20;1.73;;;6.50;55.50;;;;;;4205205;28;20759;-64
2021/03/23 10:39:02;;;;;;;11.43;5.03;;;6.50;55.30;;;;;;4218603;28;20288;-63
2021/03/23 10:41:18;;;;;;;7.10;2.23;;;6.40;55.50;;;;;;4223682;28;20311;-62
2021/03/23 10:43:31;;;;;;;3.60;1.20;;;6.60;55.50;;;;;;4222256;28;20264;-61
2021/03/23 10:45:44;;;;;;;7.10;1.43;;;6.60;55.40;;;;;;4223321;28;20276;-61
2021/03/23 10:47:46;;;;;;;6.73;1.73;;;6.70;55.60;;;;;;4207208;28;20268;-62
2021/03/23 10:49:47;;;;;;;11.50;1.73;;;6.80;55.70;;;;;;4192872;28;20269;-61
2021/03/23 10:51:53;;;;;;;5.70;1.60;;;6.90;55.60;;;;;;4205482;28;20277;-61
2021/03/23 10:54:02;;;;;;;7.37;1.50;;;6.80;55.30;;;;;;4201697;28;20273;-62
2021/03/23 10:56:20;;;;;;;11.43;1.80;;;6.70;55.40;;;;;;4205292;28;20277;-60
2021/03/23 10:58:30;;;;;;;8.53;1.57;;;6.60;55.80;;;;;;4207129;28;20277;-61
2021/03/23 11:00:32;;;;;;;4.30;1.30;;;6.60;56.30;;;;;;4205427;28;20333;-60
2021/03/23 11:02:33;;;;;;;2.90;1.33;;;6.60;56.50;;;;;;4206622;28;20857;-61
2021/03/23 11:04:56;;;;;;;9.60;2.43;;;6.50;56.50;;;;;;4218133;28;20337;-60
2021/03/23 11:07:20;;;;;;;6.10;1.80;;;6.50;57.00;;;;;;4223744;28;20261;-60
2021/03/23 11:09:21;;;;;;;6.67;1.67;;;6.50;56.80;;;;;;4222309;28;20743;-60